Herzlich Willkommen bei HDD Movie 4 You

Hier gibt es jede Menge BluRay und Xvid Movies, sowie WcW und WWE Wrestling. Wir sind bemüht alles in Bester Qualität zu halten.

Wenn Du ein bestimmten Titel suchst einfach die Suchfunktion nutzen. Unsere Datenbank hat bisher mehr als 1000 Titel beinhaltet.

Die Files sind in der Regel immer Online. Sollte mal eine Datei Offline sein, wird diese schnellstens wieder geuppt. Meldet uns auch

gerne wenn etwas Offline ist, oder ihr einen Spezielen Uploadwunsch habt. Wir werden uns dann schnell drum kümmern.

Ihr könnt euch auch völlig kostenlos Registrieren. Vorteile sind:

Bewertungen der Uploads abgeben - Wunschupload melden - Offline Dateien Melden

Bedanken der Uploads - Kommentare zu den Uploads hinterlassen

Die 100 neusten Einträge Die 100 neuesten)
Summer Musical 2011 German DL 1080p BluRay x264 3D Movies  8800  MB 23.04.2014 10:38 Uhr
The Shrine 3D HSBS 2010 German DL 1080p BluRay x264 3D Movies  6500  MB 23.04.2014 10:32 Uhr
Sleepwalker 3D 2011 HSBS German DL 1080p BluRay x264 3D Movies  5400  MB 23.04.2014 10:26 Uhr
Battle of the Year 3D HOU 2013 German DL 1080p BluRay x... 3D Movies  7300  MB 23.04.2014 10:23 Uhr
Das Geheimnis von Kells 2009 German DL 1080p BluRay x26... 1080p Movies  4300  MB 23.04.2014 10:18 Uhr
Holocaust (Die Geschichte der Familie Weiss) Complete D... Xvid Movies  3500  MB 23.04.2014 10:13 Uhr
He has seen War German Subbed BDRip – Xvid Dokus  700  MB 23.04.2014 10:04 Uhr
For all Mankind The Life and Career of Mick Foley GERMA... WWE Wrestling  4500  MB 23.04.2014 09:57 Uhr
WCW Greatest PPV Matches Volume 1 DVDRip x264 WcW Wrestling  6400  MB 23.04.2014 09:52 Uhr
Die Weihnachtsgeschichte – Das größte Wunder aller Zeit... Xvid Movies  1200  MB 23.04.2014 09:47 Uhr
Koenig der Koenige 1961 German AC3 BluRay 1080p x264 1080p Movies  7400  MB 23.04.2014 09:41 Uhr
Die zehn Gebote 1956 German AC3 BluRay 1080p x264 1080p Movies  10700  MB 23.04.2014 09:34 Uhr
Arabische Naechte 1942 German DL 1080p BluRay x264 1080p Movies  6600  MB 23.04.2014 09:23 Uhr
Ali Baba und die vierzig Raeuber 1944 German DL 1080p B... 1080p Movies  6600  MB 23.04.2014 09:13 Uhr
Good Morning Vietnam 1987 German DL 1080p BluRay x264 1080p Movies  8800  MB 23.04.2014 09:08 Uhr
Cheap Thrills 2013 German DL 1080p BluRay x264 1080p Movies  7300  MB 23.04.2014 09:04 Uhr
Das erstaunliche Leben des Walter Mitty German DL 1080p... 1080p Movies  7600  MB 23.04.2014 08:59 Uhr
Midnight Express-12 Uhr nachts 1978 German AC3 DL 1080p... 1080p Movies  10000  MB 23.04.2014 08:54 Uhr
Die Voegel 1963 German DL 1080p BluRay x264 1080p Movies  8200  MB 23.04.2014 08:47 Uhr
Die Goonies 1985 German AC3 1080p BluRay x264 1080p Movies  9200  MB 23.04.2014 08:42 Uhr
The American President - Hallo Mr. President 1995 Germa... 1080p Movies  8300  MB 23.04.2014 08:37 Uhr
Stalingrad 1993 German DTS 1080p BluRay x264 1080p Movies  12700  MB 23.04.2014 08:31 Uhr
Zero Gravity Antrieb Ueberleben 2012 German DL DTS 1080... 1080p Movies  6700  MB 23.04.2014 08:27 Uhr
Projekt Peacemaker 1997 German DL 1080p BluRay x264 1080p Movies  8300  MB 23.04.2014 08:23 Uhr
Windtalkers 2002 German DL 1080p BluRay x264 1080p Movies  9400  MB 23.04.2014 08:17 Uhr
WWE Wrestlemania 30 - 2014 Deutsch Xvid WWE Wrestling  2200  MB 10.04.2014 10:58 Uhr
Der Hobbit Smaugs Einoede German DL 1080p BluRay x264 1080p Movies  9100  MB 06.04.2014 17:29 Uhr
Der Hobbit Smaugs Einoede 3D HOU German DL DTS 1080p Bl... 3D Movies  9700  MB 05.04.2014 13:47 Uhr
Ice Age 3 3D H-SBS German DL 1080p BluRay x264 3D Movies  5600  MB 03.04.2014 09:37 Uhr
47 Ronin 3D H-SBS German DL DTS 5.1 1080p BluRay x264 3D Movies  12900  MB 03.04.2014 09:32 Uhr
Wunder des Waldes 3D H-SBS German DL 1080p BluRay x264 3D Movies  5500  MB 03.04.2014 09:28 Uhr
Barabbas Teil 2 German DL 1080p BluRay x264 1080p Movies  7800  MB 03.04.2014 09:23 Uhr
Barabbas Teil 1 German DL 1080p BluRay x264 1080p Movies  9200  MB 03.04.2014 09:22 Uhr
Hulk Hogan Der Hammer German DL 1080p BluRay x264 1080p Movies  6800  MB 03.04.2014 09:17 Uhr
Die Saurier Revolution 3D H-OU 2013 German BluRay 3D Movies  11400  MB 29.03.2014 11:23 Uhr
Faszination Island - Das Paradies des Nordens 2012 3D H... 3D Movies  2900  MB 29.03.2014 11:18 Uhr
Der Dschungel - Zauber einer anderen Welt 3D H-OU Germa... 3D Movies  7000  MB 29.03.2014 11:12 Uhr
Die fantastische Reise der Vögel 3D H-SBS German DL 108... 3D Movies  12000  MB 29.03.2014 11:06 Uhr
Freedom Force 3D H-SBS German DL 1080p BluRay x264 3D Movies  6900  MB 29.03.2014 11:01 Uhr
Enders Game 2013 German DL DTS 1080p BluRay x264 1080p Movies  6700  MB 29.03.2014 10:56 Uhr
Die Mumie Trilogie German 1080p BluRay DTS x264 Filme e... 1080p Movies  29400  MB 29.03.2014 10:49 Uhr
Teen Wolf 1985 German DL AC3 1080p BluRay x264 1080p Movies  7300  MB 29.03.2014 10:44 Uhr
Gone German DL 1080p BluRay x264 1080p Movies  4500  MB 29.03.2014 10:34 Uhr
Gullivers Reisen 1939 German DL 1080p BluRay x264 1080p Movies  6000  MB 29.03.2014 10:30 Uhr
Laurel & Hardy Kurzfilm Collection German Xvid Xvid Movies  6900  MB 29.03.2014 10:26 Uhr
Laurel & Hardy Filmklassiker Collection German Xvid Xvid Movies  8000  MB 29.03.2014 10:22 Uhr
Die Eiskoenigin Voellig unverfroren 3D H-OU German DL 1... 3D Movies  6000  MB 16.03.2014 16:21 Uhr
Die Eiskoenigin Voellig unverfroren German DL 1080p Blu... 1080p Movies  4900  MB 15.03.2014 16:20 Uhr
Die Eiskoenigin Voellig unverfroren German BDRiP x264 Sonstiges  990  MB 15.03.2014 11:23 Uhr
Rapunzel Neu verfoehnt 3D H.SBS German DL 1080p BluRay ... 3D Movies  4900  MB 15.03.2014 10:06 Uhr
Cabin Fever 2 3D H.SBS German DL 1080p BluRay x264 3D Movies  3500  MB 15.03.2014 10:01 Uhr
Cabin Fever 3D H.SBS German DL 1080p BluRay x264 3D Movies  3900  MB 15.03.2014 09:57 Uhr
Die Tribute von Panem Catching Fire German DTS DL 1080p... 1080p Movies  8000  MB 15.03.2014 09:50 Uhr
Escape Plan German DL 1080p BluRay x264 1080p Movies  5200  MB 15.03.2014 09:46 Uhr
The Hungover Games UNRATED 2014 German AC3 DVDRip x264 Sonstiges  1200  MB 15.03.2014 09:42 Uhr
Ich weiss was du letzten Sommer getan hast 1997 German ... 1080p Movies  4800  MB 15.03.2014 09:38 Uhr
Rapunzel Neu verfoehnt 2010 1080p BluRay DTS DL x264 1080p Movies  10250  MB 15.03.2014 09:34 Uhr
Der Mann der zuviel wusste 1956 German DTS DL 1080p Blu... 1080p Movies  13550  MB 15.03.2014 09:27 Uhr
Schlau wie eine Ziege (Goat Story 2) 2012 German 3D H-O... 3D Movies  5900  MB 08.03.2014 10:55 Uhr
Konferenz der Tiere 3D German H.SBS DTS 1080p x264 3D Movies  4800  MB 08.03.2014 10:47 Uhr
Der Butler 2014 German DL DTS 1080p BluRay x264 1080p Movies  12800  MB 08.03.2014 10:41 Uhr
Annie 1982 German DL 1080p BluRay x264 1080p Movies  11600  MB 08.03.2014 10:34 Uhr
Das Fenster zum Hof 1954 German DTS DL 1080p BluRay x26... 1080p Movies  11500  MB 08.03.2014 10:28 Uhr
Reichtum ist keine Schande 1979 German DL 1080p BluRay ... 1080p Movies  6600  MB 08.03.2014 10:24 Uhr
Marley und Ich 2008 German DTS 1080p x264 1080p Movies  7500  MB 08.03.2014 10:19 Uhr
Indiana Jones und das Koenigreich des Kristallschaedels... 1080p Movies  10000  MB 08.03.2014 10:15 Uhr
Das Vermaechtnis des geheimen Buches 2007 German DL 108... 1080p Movies  7800  MB 08.03.2014 10:11 Uhr
Das Vermaechtnis der Tempelritter 2004 German DL 1 080p... 1080p Movies  7400  MB 08.03.2014 10:07 Uhr
Die Maske II Son of the Mask 2005 German AC3D DL 1080p ... 1080p Movies  7000  MB 08.03.2014 10:04 Uhr
Die Maske 1994 AC3D German 1080p BluRay x264 1080p Movies  8000  MB 08.03.2014 10:00 Uhr
Thor The Dark Kingdom 3D H-OU 2013 German DL Retail 108... 3D Movies  8200  MB 02.03.2014 09:51 Uhr
Indien - Auf den Spuren des Tigers 2013 3D H-OU 1080p D... 3D Movies  12800  MB 01.03.2014 10:46 Uhr
Goat Story 2 (Schlau wie eine Ziege) 2012 German 1080p ... 1080p Movies  4200  MB 01.03.2014 10:41 Uhr
Sammys Abenteuer 2 2012 German DTS 1080p BluRay x264 1080p Movies  7100  MB 01.03.2014 10:37 Uhr
Indiana Jones Jaeger des verlorenen Schatzes 1981 Germa... 1080p Movies  10500  MB 01.03.2014 10:32 Uhr
Sleepwalkers Schlafwandler 1992 German AC3D DL 1080p Bl... 1080p Movies  6700  MB 01.03.2014 10:22 Uhr
Kull Der Eroberer 1997 German DL 1080p BluRay x264 1080p Movies  6800  MB 01.03.2014 10:18 Uhr
Pocahontas 2 Reise in eine neue Welt German 1998 DL 108... 1080p Movies  3500  MB 01.03.2014 10:02 Uhr
Frequency 2000 German AC3D DL 1080p BluRay x264 1080p Movies  8100  MB 01.03.2014 09:58 Uhr
Hellboy Directors Cut 2004 German DL 1080p BluRay x264 1080p Movies  10800  MB 01.03.2014 09:54 Uhr
Auf dem Highway ist die Hoelle los 1981 GERMAN AC3D DL ... 1080p Movies  6000  MB 01.03.2014 09:46 Uhr
WWE Elimination Chamber (No Escape) 2014 Deutsch Xvid WWE Wrestling  1700  MB 25.02.2014 14:02 Uhr
Wolkig mit Aussicht auf Fleischbaellchen 2 2013 3D H-OU... 3D Movies  8700  MB 22.02.2014 12:26 Uhr
Delfine 2013 3D H-OU German DL 1080p Bluray X264 3D Movies  4700  MB 22.02.2014 12:20 Uhr
Tiere der Serengeti 2014 3D H-OU 1080p German x264 3D Movies  5500  MB 22.02.2014 12:14 Uhr
Serengeti 3D H-OU German 1080p BluRay DTS-HD 5.1 x264 3D Movies  5500  MB 22.02.2014 12:07 Uhr
Space Junk 2012 3D H-OU German DL 1080p Bluray X264 3D Movies  3500  MB 22.02.2014 12:02 Uhr
Bolt Ein Hund fuer alle Faelle 3D H-SBS 2008 German DL ... 3D Movies  4500  MB 22.02.2014 11:57 Uhr
Cabin Fever 3 Patient Zero 3D H-SBS 2014 German DL 1080... 3D Movies  3900  MB 22.02.2014 11:52 Uhr
Cabin Fever 3 Patient Zero 2014 German DL 1080p BluRay ... 1080p Movies  3800  MB 22.02.2014 11:47 Uhr
WWE Goldberg The Ultimate Collection German DL 3x DVD5 WWE Wrestling  13200  MB 20.02.2014 10:08 Uhr
The Tall Man 2012 German DL 1080p BluRay x264 1080p Movies  4400  MB 20.02.2014 10:00 Uhr
Unten am Fluss 1978 German DL 1080p BluRay x264 1080p Movies  4800  MB 20.02.2014 09:56 Uhr
Die Gluecksritter 1983 GERMAN AC3D DL 1080p BluRay x264 1080p Movies  11000  MB 20.02.2014 09:52 Uhr
Das Netz 1995 German DL 1080p BluRay x264 1080p Movies  8800  MB 20.02.2014 09:48 Uhr
Die Nacht der Abenteuer 1987 German AC3 DL 1080p BluRay... 1080p Movies  8000  MB 20.02.2014 09:45 Uhr
Und taeglich gruesst das Murmeltier 1993 German DL 1080... 1080p Movies  8100  MB 20.02.2014 09:41 Uhr
Bernard und Bianca im Kaenguruhland 1990 German DL 1080... 1080p Movies  8600  MB 20.02.2014 09:37 Uhr
Bernard und Bianca Die Maeusepolizei 1977 German DL 108... 1080p Movies  8000  MB 20.02.2014 09:33 Uhr
Robur - Der Herr der sieben Kontinente 1961 German Xvid Xvid Movies  1100  MB 20.02.2014 09:29 Uhr
Die 30 beliebtesten Einträge (Letzter Reset: 23.01.2010 @ 18:18)
101 Avatar 3D.1080p.Half.SBS.BluRay Extended 3D Movies  19810  MB 03.09.2012 08:50 Uhr
92 Avatar 3D 1080p DL H-OU BluRay Extended 3D Movies  19000  MB 13.09.2012 08:49 Uhr
81 Ice Age 4 Voll verschoben 3D H-SBS DL 1080 3D Movies  7900  MB 02.11.2012 10:20 Uhr
76 Final Destination 5 3D SBS German 1080p 3D Movies  4350  MB 03.09.2012 08:47 Uhr
61 Step Up Miami Heat 3D 2012 German DL 1080p BluRay x264 3D Movies  6100  MB 23.02.2013 10:04 Uhr
53 Marvels The Avengers H-SBS 3D 2012 DL 1080p BLURAY 3D Movies  10000  MB 12.09.2012 10:23 Uhr
49 Ice Age Special Eine coole Bescherung 2012 3D H-OU DTS ... 3D Movies  2700  MB 23.11.2012 13:49 Uhr
47 Silent Hill Revelation 2012 3D H-OU German DTS DL 1080p... 3D Movies  10000  MB 26.04.2013 12:11 Uhr
46 Der Polarexpress German H.SBS.3D BluRay 1080p x264 3D Movies  12000  MB 16.10.2012 09:19 Uhr
44 Sammys Abenteuer 3D H.SBS GERMAN 1080p Bluray x264 3D Movies  5200  MB 26.10.2012 11:50 Uhr
41 Der gestiefelte Kater 3D H-SBS German 1080p 3D Movies  2790  MB 03.09.2012 08:49 Uhr
40 John Carter Zwischen zwei Welten 3D H.SBS 2012 DL 1080p... 3D Movies  8400  MB 30.10.2012 09:45 Uhr
39 Madagascar 3 3D.Flucht durch Europa 1080p BluRay x264 3D Movies  6200  MB 15.12.2012 16:14 Uhr
38 Dredd 2012 Uncut 3D 1080p Bluray H.OU X264 3D Movies  11200  MB 24.05.2013 11:45 Uhr
38 Iron Man 3 2013 3D H-OU German DL 1080p BluRay 3D Movies  11900  MB 19.09.2013 12:03 Uhr
37 Best of 3D Vol. 1-3 H.OU BLURAY x264 3D Movies  9500  MB 13.07.2013 12:54 Uhr
36 Men in Black 3 3D H-OU 1080 DL 5.1 Bluray mkv 3D Movies  11000  MB 12.09.2012 10:03 Uhr
36 Der Hobbit Eine unerwartete Reise 3D German DL 1080p Bl... 3D Movies  11000  MB 17.04.2013 13:52 Uhr
35 Titanic 1997 3D H-SBS German AC3D 5.1 DL 1080p BluRay x... 3D Movies  18600  MB 05.09.2012 13:52 Uhr
33 Die Reise zur geheimnisvollen Insel 3D H-SBS MKV 1080 3D Movies  11200  MB 03.09.2012 08:44 Uhr
33 Die Schluempfe 3D H-SBS 1080p BluRay x264 3D Movies  7300  MB 03.09.2012 08:44 Uhr
32 IMAX Mumien 3D H-OU German 3D Movies  3500  MB 03.09.2012 08:48 Uhr
32 Koenig der Loewen 3D.H-SBS.1080p AC3D.3DBluray Mkv 3D Movies  7320  MB 03.09.2012 08:51 Uhr
32 Krieg der Goetter 3D H.SBS.German.DL 1080p BluRay x264 3D Movies  5900  MB 16.10.2012 09:13 Uhr
32 Die Drei Musketiere 3D H-SBS German DL 1080p BluRay x26... 3D Movies  6400  MB 02.02.2013 10:32 Uhr
30 Die Legende der Waechter 3D H.SBS.German.DL 1080p BluRa... 3D Movies  5400  MB 16.10.2012 09:07 Uhr
30 Yogi Baer 3D H.SBS German DL 1080p BluRay x264 3D Movies  5700  MB 26.10.2012 12:36 Uhr
30 Prometheus 2012 3D H-OU DL 1080p 3D Movies  12400  MB 23.11.2012 14:01 Uhr
28 Die Schneekönigin (2002) DVDRip German Dubbed XviD Xvid Movies  1840  MB 07.09.2012 15:30 Uhr
28 Merida Legende der Highlands 2012 3D H-OU AC3D 5.1 DL 1... 3D Movies  8900  MB 15.11.2012 09:54 Uhr